Grimstead, Virginia
Current Conditions -  °F | °C
As of 11:55 PM on Saturday 22 Nov 2014 (Local Time) from KW75 Reporting Station
Clear Clear  
Wind Chill: 35°   Ceiling: Unl
Heat Index: 39°   Visibility: 10mi
Dew Point: 20°   Wind: 6mph
Humidity: 47%   Direction: 210°SSW
Pressure: 30.31"   Gusts: NA
Location:  37.5°N, 76.3°W
Report Text: KW75 230455Z AUTO 21005KT 10SM CLR 04/M06 A3031 RMK AO1 T00401064 400931061
Loading
Personal Weather Stations






























Interactive Weather Map New forecast layout! Learn more

10-Day Weather Forecast

Advertisements
Track Severe Weather on mobile